createdAt,value
2022-08-24T00:01:22.819Z,100573.47
2022-08-24T00:03:55.333Z,100575.81
2022-08-24T00:06:26.502Z,100563.25
2022-08-24T00:08:55.897Z,100570.13
2022-08-24T00:11:24.000Z,100572.69
2022-08-24T00:13:52.592Z,100579.03
2022-08-24T00:16:22.463Z,100566.59
2022-08-24T00:18:50.607Z,100566.47
2022-08-24T00:21:19.665Z,100562.09
2022-08-24T00:23:49.510Z,100565.50
2022-08-24T00:26:19.509Z,100571.66
2022-08-24T00:28:57.164Z,100557.66
2022-08-24T00:31:26.804Z,100560.59
2022-08-24T00:33:56.321Z,100567.00
2022-08-24T00:36:25.364Z,100568.47
2022-08-24T00:38:54.522Z,100569.44
2022-08-24T00:41:23.107Z,100563.38
2022-08-24T00:43:55.834Z,100560.81
2022-08-24T00:46:29.685Z,100564.22
2022-08-24T00:49:03.805Z,100569.97
2022-08-24T00:51:37.047Z,100569.59
2022-08-24T00:54:09.366Z,100565.81
2022-08-24T00:56:42.102Z,100562.03
2022-08-24T00:59:12.928Z,100563.00
2022-08-24T01:01:44.175Z,100556.41
2022-08-24T01:04:19.162Z,100555.44
2022-08-24T01:06:49.841Z,100559.22
2022-08-24T01:09:18.278Z,100553.84
2022-08-24T01:11:48.259Z,100552.88
2022-08-24T01:14:17.409Z,100554.34
2022-08-24T01:17:04.741Z,100561.41
2022-08-24T01:19:38.147Z,100563.09
2022-08-24T01:22:24.365Z,100577.34
2022-08-24T01:24:53.677Z,100567.94
2022-08-24T01:27:28.227Z,100574.28
2022-08-24T01:29:58.186Z,100568.19
2022-08-24T01:32:28.326Z,100574.97
2022-08-24T01:34:57.061Z,100568.63
2022-08-24T01:37:25.601Z,100576.47
2022-08-24T01:39:57.370Z,100575.97
2022-08-24T01:42:29.781Z,100570.72
2022-08-24T01:44:57.819Z,100580.09
2022-08-24T01:47:25.815Z,100582.41
2022-08-24T01:49:53.880Z,100580.81
2022-08-24T01:52:27.902Z,100579.19
2022-08-24T01:55:01.963Z,100576.44
2022-08-24T01:57:31.529Z,100580.97
2022-08-24T02:00:00.749Z,100577.47
2022-08-24T02:02:32.316Z,100589.75
2022-08-24T02:05:01.337Z,100588.44
2022-08-24T02:07:32.937Z,100589.91
2022-08-24T02:10:02.420Z,100590.38
2022-08-24T02:12:30.881Z,100597.28
2022-08-24T02:14:59.527Z,100602.53
2022-08-24T02:17:29.102Z,100603.38
2022-08-24T02:19:57.299Z,100605.25
2022-08-24T02:22:25.337Z,100607.56
2022-08-24T02:24:53.490Z,100599.22
2022-08-24T02:27:22.909Z,100604.03
2022-08-24T02:29:51.669Z,100593.78
2022-08-24T02:32:20.226Z,100605.63
2022-08-24T02:34:48.582Z,100606.28
2022-08-24T02:37:17.259Z,100603.06
2022-08-24T02:39:45.988Z,100608.13
2022-08-24T02:42:17.958Z,100599.19
2022-08-24T02:44:48.060Z,100607.31
2022-08-24T02:47:18.003Z,100603.19
2022-08-24T02:49:46.082Z,100606.56
2022-08-24T02:52:14.289Z,100608.38
2022-08-24T02:54:42.793Z,100607.78
2022-08-24T02:57:10.905Z,100608.41
2022-08-24T02:59:39.827Z,100610.81
2022-08-24T03:02:09.245Z,100611.84
2022-08-24T03:04:37.402Z,100608.78
2022-08-24T03:07:05.912Z,100610.22
2022-08-24T03:09:33.879Z,100612.13
2022-08-24T03:12:01.952Z,100610.94
2022-08-24T03:14:30.296Z,100609.59
2022-08-24T03:16:58.425Z,100610.34
2022-08-24T03:19:27.814Z,100604.59
2022-08-24T03:21:55.963Z,100611.53
2022-08-24T03:24:24.189Z,100609.78
2022-08-24T03:26:52.705Z,100605.38
2022-08-24T03:29:20.900Z,100610.38
2022-08-24T03:31:52.216Z,100610.81
2022-08-24T03:34:20.854Z,100605.59
2022-08-24T03:36:50.200Z,100605.94
2022-08-24T03:39:19.284Z,100606.72
2022-08-24T03:41:50.523Z,100603.25
2022-08-24T03:44:22.935Z,100609.13
2022-08-24T03:46:51.718Z,100600.34
2022-08-24T03:49:20.657Z,100601.97
2022-08-24T03:51:50.687Z,100603.91
2022-08-24T03:54:22.395Z,100604.38
2022-08-24T03:56:50.799Z,100603.94
2022-08-24T03:59:20.135Z,100604.84
2022-08-24T04:01:50.800Z,100607.38
2022-08-24T04:04:18.926Z,100610.91
2022-08-24T04:06:46.989Z,100607.97
2022-08-24T04:09:17.918Z,100608.22
2022-08-24T04:11:48.725Z,100615.41
2022-08-24T04:14:26.817Z,100613.53
2022-08-24T04:17:07.255Z,100619.28
2022-08-24T04:19:57.257Z,100620.66
2022-08-24T04:22:28.638Z,100613.31
2022-08-24T04:24:58.047Z,100616.38
2022-08-24T04:27:27.013Z,100618.00
2022-08-24T04:29:55.016Z,100621.97
2022-08-24T04:32:24.869Z,100627.41
2022-08-24T04:34:56.347Z,100625.22
2022-08-24T04:37:24.321Z,100629.34
2022-08-24T04:39:58.833Z,100634.94
2022-08-24T04:42:34.874Z,100630.50
2022-08-24T04:45:03.135Z,100641.28
2022-08-24T04:47:31.270Z,100638.88
2022-08-24T04:50:00.715Z,100642.88
2022-08-24T04:52:29.451Z,100646.25
2022-08-24T04:54:59.154Z,100648.63
2022-08-24T04:57:27.995Z,100643.44
2022-08-24T04:59:59.163Z,100651.81
2022-08-24T05:02:27.461Z,100654.88
2022-08-24T05:04:58.133Z,100657.75
2022-08-24T05:07:26.705Z,100655.06
2022-08-24T05:09:55.939Z,100657.09
2022-08-24T05:12:26.811Z,100660.28
2022-08-24T05:15:01.052Z,100666.56
2022-08-24T05:17:30.725Z,100668.59
2022-08-24T05:19:59.493Z,100661.63
2022-08-24T05:22:28.708Z,100667.44
2022-08-24T05:24:58.031Z,100666.78
2022-08-24T05:27:27.477Z,100671.97
2022-08-24T05:29:56.702Z,100672.50
2022-08-24T05:32:25.047Z,100669.16
2022-08-24T05:34:55.192Z,100664.28
2022-08-24T05:37:24.704Z,100669.06
2022-08-24T05:40:15.061Z,100672.00
2022-08-24T05:42:48.571Z,100674.50
2022-08-24T05:45:17.298Z,100680.63
2022-08-24T05:47:45.572Z,100680.34
2022-08-24T05:50:32.706Z,100672.06
2022-08-24T05:53:00.759Z,100678.66
2022-08-24T05:55:30.469Z,100677.34
2022-08-24T05:58:00.023Z,100678.59
2022-08-24T06:00:28.593Z,100685.47
2022-08-24T06:02:56.755Z,100685.25
2022-08-24T06:05:24.939Z,100684.63
2022-08-24T06:07:53.053Z,100690.38
2022-08-24T06:10:36.369Z,100689.38
2022-08-24T06:13:07.124Z,100697.38
2022-08-24T06:15:35.995Z,100700.44
2022-08-24T06:18:05.504Z,100693.28
2022-08-24T06:20:34.767Z,100687.56
2022-08-24T06:23:02.885Z,100693.25
2022-08-24T06:25:58.207Z,100702.94
2022-08-24T06:28:27.774Z,100700.78
2022-08-24T06:31:02.949Z,100700.59
2022-08-24T06:33:31.377Z,100698.94
2022-08-24T06:36:00.334Z,100705.41
2022-08-24T06:38:30.623Z,100701.31
2022-08-24T06:41:00.067Z,100701.53
2022-08-24T06:43:29.477Z,100702.59
2022-08-24T06:46:02.293Z,100709.31
2022-08-24T06:48:36.570Z,100713.81
2022-08-24T06:51:11.285Z,100713.84
2022-08-24T06:53:40.206Z,100713.47
2022-08-24T06:56:09.557Z,100720.19
2022-08-24T06:58:40.075Z,100722.81
2022-08-24T07:01:15.509Z,100724.44
2022-08-24T07:03:43.964Z,100720.66
2022-08-24T07:06:41.042Z,100724.94
2022-08-24T07:09:10.148Z,100730.22
2022-08-24T07:11:38.352Z,100722.97
2022-08-24T07:14:09.160Z,100726.53
2022-08-24T07:16:37.836Z,100729.19
2022-08-24T07:19:07.561Z,100723.41
2022-08-24T07:21:36.875Z,100727.44
2022-08-24T07:24:07.142Z,100729.16
2022-08-24T07:26:40.136Z,100731.41
2022-08-24T07:29:43.717Z,100726.88
2022-08-24T07:32:05.441Z,100726.03
2022-08-24T07:34:38.113Z,100729.13
2022-08-24T07:37:07.995Z,100724.25
2022-08-24T07:39:39.271Z,100729.19
2022-08-24T07:42:22.965Z,100727.88
2022-08-24T07:44:57.364Z,100725.50
2022-08-24T07:47:38.599Z,100731.84
2022-08-24T07:50:17.316Z,100727.41
2022-08-24T07:52:46.651Z,100730.94
2022-08-24T07:55:15.706Z,100737.97
2022-08-24T07:57:46.091Z,100735.38
2022-08-24T08:00:19.585Z,100744.22
2022-08-24T08:02:52.923Z,100746.78
2022-08-24T08:05:23.691Z,100739.84
2022-08-24T08:07:54.152Z,100741.09
2022-08-24T08:10:23.292Z,100742.78
2022-08-24T08:12:52.966Z,100744.41
2022-08-24T08:15:23.024Z,100746.56
2022-08-24T08:17:59.676Z,100753.19
2022-08-24T08:20:27.839Z,100747.06
2022-08-24T08:23:14.376Z,100747.28
2022-08-24T08:26:02.960Z,100751.56
2022-08-24T08:28:52.531Z,100749.16
2022-08-24T08:31:22.619Z,100748.09
2022-08-24T08:33:51.639Z,100754.34
2022-08-24T08:36:22.137Z,100752.78
2022-08-24T08:38:51.674Z,100745.19
2022-08-24T08:41:59.017Z,100749.94
2022-08-24T08:44:54.344Z,100751.09
2022-08-24T08:47:48.316Z,100748.47
2022-08-24T08:50:23.805Z,100742.50
2022-08-24T08:53:32.732Z,100744.25
2022-08-24T08:56:10.083Z,100751.91
2022-08-24T08:58:57.547Z,100741.50
2022-08-24T09:01:47.489Z,100745.88
2022-08-24T09:04:52.041Z,100744.03
2022-08-24T09:07:36.764Z,100734.47
2022-08-24T09:10:33.787Z,100741.44
2022-08-24T09:13:12.001Z,100736.19
2022-08-24T09:16:09.655Z,100730.31
2022-08-24T09:18:59.089Z,100740.72
2022-08-24T09:21:46.417Z,100725.81
2022-08-24T09:24:31.670Z,100734.78
2022-08-24T09:27:18.325Z,100727.25
2022-08-24T09:30:05.591Z,100734.94
2022-08-24T09:32:49.481Z,100732.41
2022-08-24T09:35:26.731Z,100730.09
2022-08-24T09:38:06.304Z,100731.31
2022-08-24T09:40:45.247Z,100738.66
2022-08-24T09:43:22.587Z,100735.91
2022-08-24T09:46:35.470Z,100733.06
2022-08-24T09:49:19.829Z,100725.91
2022-08-24T09:52:19.446Z,100728.75
2022-08-24T09:55:38.226Z,100728.06
2022-08-24T09:58:19.587Z,100725.75
2022-08-24T10:00:51.715Z,100718.66
2022-08-24T10:03:36.339Z,100713.66
2022-08-24T10:06:27.663Z,100715.88
2022-08-24T10:09:24.012Z,100719.41
2022-08-24T10:12:00.923Z,100719.44
2022-08-24T10:14:46.077Z,100714.38
2022-08-24T10:17:21.827Z,100705.06
2022-08-24T10:20:04.838Z,100705.78
2022-08-24T10:22:49.255Z,100700.78
2022-08-24T10:25:32.529Z,100698.56
2022-08-24T10:28:28.412Z,100702.91
2022-08-24T10:31:08.747Z,100694.22
2022-08-24T10:33:55.071Z,100688.94
2022-08-24T10:36:50.110Z,100685.31
2022-08-24T10:40:06.301Z,100683.56
2022-08-24T10:43:10.992Z,100681.03
2022-08-24T10:46:10.564Z,100672.47
2022-08-24T10:49:00.224Z,100675.69
2022-08-24T10:51:42.342Z,100670.34
2022-08-24T10:54:13.542Z,100675.88
2022-08-24T10:56:45.372Z,100672.22
2022-08-24T10:59:23.385Z,100670.38
2022-08-24T11:02:12.898Z,100669.56
2022-08-24T11:04:41.757Z,100662.25
2022-08-24T11:07:17.662Z,100661.72
2022-08-24T11:09:51.624Z,100655.75
2022-08-24T11:12:28.437Z,100660.03
2022-08-24T11:14:59.477Z,100652.66
2022-08-24T11:17:31.448Z,100645.53
2022-08-24T11:19:59.844Z,100651.34
2022-08-24T11:22:36.779Z,100655.31
2022-08-24T11:25:11.683Z,100659.53
2022-08-24T11:27:41.988Z,100653.50
2022-08-24T11:30:22.603Z,100652.78
2022-08-24T11:32:56.503Z,100646.16
2022-08-24T11:35:27.434Z,100643.63
2022-08-24T11:37:58.055Z,100640.06
2022-08-24T11:40:32.018Z,100653.41
2022-08-24T11:43:22.486Z,100642.16
2022-08-24T11:46:04.437Z,100639.69
2022-08-24T11:48:43.697Z,100635.78
2022-08-24T11:51:17.214Z,100633.03
2022-08-24T11:53:55.664Z,100645.22
2022-08-24T11:56:30.701Z,100632.59
2022-08-24T11:59:06.110Z,100638.56
2022-08-24T12:01:40.672Z,100629.31
2022-08-24T12:04:31.299Z,100634.66
2022-08-24T12:07:08.763Z,100626.06
2022-08-24T12:09:49.650Z,100626.06
2022-08-24T12:12:26.268Z,100621.38
2022-08-24T12:15:01.813Z,100621.50
2022-08-24T12:17:37.929Z,100627.69
2022-08-24T12:20:21.695Z,100624.94
2022-08-24T12:22:50.416Z,100626.53
2022-08-24T12:25:36.588Z,100621.00
2022-08-24T12:28:06.440Z,100628.06
2022-08-24T12:30:35.134Z,100615.41
2022-08-24T12:33:08.121Z,100616.28
2022-08-24T12:35:42.214Z,100611.53
2022-08-24T12:38:18.298Z,100620.13
2022-08-24T12:40:53.428Z,100610.88
2022-08-24T12:43:26.575Z,100618.59
2022-08-24T12:45:56.840Z,100609.16
2022-08-24T12:48:29.913Z,100614.72
2022-08-24T12:51:12.146Z,100596.72
2022-08-24T12:54:01.653Z,100603.00
2022-08-24T12:56:48.775Z,100597.53
2022-08-24T12:59:23.669Z,100596.78
2022-08-24T13:02:01.405Z,100597.03
2022-08-24T13:04:37.485Z,100593.16
2022-08-24T13:07:11.832Z,100597.22
2022-08-24T13:09:42.426Z,100592.72
2022-08-24T13:12:52.700Z,100590.66
2022-08-24T13:15:57.234Z,100595.47
2022-08-24T13:19:19.289Z,100597.13
2022-08-24T13:21:54.288Z,100598.44
2022-08-24T13:24:59.263Z,100598.19
2022-08-24T13:28:01.126Z,100586.09
2022-08-24T13:30:36.301Z,100592.59
2022-08-24T13:33:09.824Z,100584.06
2022-08-24T13:35:59.284Z,100581.94
2022-08-24T13:38:52.501Z,100583.25
2022-08-24T13:41:50.529Z,100575.16
2022-08-24T13:44:28.010Z,100571.94
2022-08-24T13:47:03.914Z,100570.97
2022-08-24T13:49:49.919Z,100571.41
2022-08-24T13:52:30.577Z,100567.38
2022-08-24T13:55:13.458Z,100558.56
2022-08-24T13:57:46.183Z,100556.44
2022-08-24T14:00:39.970Z,100558.63
2022-08-24T14:03:21.370Z,100559.94
2022-08-24T14:05:54.237Z,100552.84
2022-08-24T14:08:37.073Z,100562.03
2022-08-24T14:11:12.827Z,100549.44
2022-08-24T14:13:57.556Z,100552.97
2022-08-24T14:16:57.348Z,100545.75
2022-08-24T14:19:32.644Z,100544.94
2022-08-24T14:22:13.941Z,100548.78
2022-08-24T14:24:46.544Z,100540.09
2022-08-24T14:27:38.218Z,100539.84
2022-08-24T14:30:54.537Z,100538.19
2022-08-24T14:33:31.607Z,100536.16
2022-08-24T14:36:13.044Z,100537.50
2022-08-24T14:39:06.512Z,100529.09
2022-08-24T14:41:46.657Z,100532.69
2022-08-24T14:44:24.935Z,100527.34
2022-08-24T14:47:05.027Z,100526.75
2022-08-24T14:49:44.512Z,100521.41
2022-08-24T14:52:32.034Z,100515.13
2022-08-24T14:55:09.514Z,100519.97
2022-08-24T14:57:50.937Z,100506.72
2022-08-24T15:00:21.843Z,100509.34
2022-08-24T15:03:12.438Z,100516.38
2022-08-24T15:05:58.949Z,100510.25
2022-08-24T15:08:43.228Z,100500.56
2022-08-24T15:11:13.077Z,100504.50
2022-08-24T15:13:47.741Z,100504.06
2022-08-24T15:16:20.155Z,100506.44
2022-08-24T15:18:55.313Z,100506.44
2022-08-24T15:21:37.107Z,100498.31
2022-08-24T15:24:16.488Z,100490.78
2022-08-24T15:26:58.950Z,100497.28
2022-08-24T15:29:31.715Z,100499.50
2022-08-24T15:32:03.764Z,100506.84
2022-08-24T15:34:38.415Z,100496.50
2022-08-24T15:37:08.513Z,100499.78
2022-08-24T15:39:37.243Z,100497.69
2022-08-24T15:42:07.217Z,100488.75
2022-08-24T15:44:36.722Z,100497.44
2022-08-24T15:47:16.182Z,100494.44
2022-08-24T15:49:49.272Z,100494.53
2022-08-24T15:52:46.284Z,100500.34
2022-08-24T15:55:28.422Z,100494.59
2022-08-24T15:57:57.587Z,100498.25
2022-08-24T16:00:54.928Z,100501.78
2022-08-24T16:03:26.433Z,100498.13
2022-08-24T16:05:56.818Z,100500.25
2022-08-24T16:08:26.313Z,100506.03
2022-08-24T16:10:57.518Z,100502.50
2022-08-24T16:13:29.259Z,100508.91
2022-08-24T16:16:02.103Z,100514.66
2022-08-24T16:18:46.664Z,100513.19
2022-08-24T16:21:18.112Z,100508.97
2022-08-24T16:24:02.667Z,100508.84
2022-08-24T16:26:33.014Z,100507.44
2022-08-24T16:29:01.546Z,100507.44
2022-08-24T16:31:49.225Z,100506.72
2022-08-24T16:34:24.735Z,100506.75
2022-08-24T16:36:52.855Z,100511.03
2022-08-24T16:39:22.490Z,100507.38
2022-08-24T16:41:52.929Z,100510.16
2022-08-24T16:44:20.973Z,100507.94
2022-08-24T16:46:54.415Z,100512.34
2022-08-24T16:49:22.581Z,100499.41
2022-08-24T16:51:50.746Z,100515.00
2022-08-24T16:54:19.039Z,100509.31
2022-08-24T16:56:48.581Z,100501.34
2022-08-24T16:59:21.396Z,100504.81
2022-08-24T17:01:50.204Z,100504.06
2022-08-24T17:04:18.765Z,100505.44
2022-08-24T17:06:49.757Z,100501.88
2022-08-24T17:09:19.892Z,100490.41
2022-08-24T17:11:49.970Z,100500.38
2022-08-24T17:14:19.523Z,100503.94
2022-08-24T17:16:48.045Z,100501.66
2022-08-24T17:19:20.538Z,100494.31
2022-08-24T17:21:48.818Z,100506.41
2022-08-24T17:24:20.599Z,100500.00
2022-08-24T17:26:52.230Z,100502.16
2022-08-24T17:29:21.116Z,100504.84
2022-08-24T17:31:50.656Z,100508.28
2022-08-24T17:34:21.388Z,100503.31
2022-08-24T17:36:51.145Z,100507.56
2022-08-24T17:39:20.494Z,100513.91
2022-08-24T17:41:49.967Z,100518.78
2022-08-24T17:44:24.835Z,100519.59
2022-08-24T17:46:55.700Z,100521.66
2022-08-24T17:49:24.201Z,100525.72
2022-08-24T17:51:53.073Z,100528.50
2022-08-24T17:54:21.793Z,100526.34
2022-08-24T17:56:51.807Z,100538.31
2022-08-24T17:59:26.620Z,100532.41
2022-08-24T18:01:56.341Z,100530.75
2022-08-24T18:04:27.628Z,100529.28
2022-08-24T18:06:57.444Z,100536.13
2022-08-24T18:09:30.450Z,100535.94
2022-08-24T18:12:05.285Z,100540.69
2022-08-24T18:14:34.507Z,100541.19
2022-08-24T18:17:06.525Z,100542.22
2022-08-24T18:19:36.061Z,100541.22
2022-08-24T18:22:07.024Z,100548.78
2022-08-24T18:24:35.477Z,100543.38
2022-08-24T18:27:10.051Z,100553.00
2022-08-24T18:29:40.803Z,100550.44
2022-08-24T18:32:11.656Z,100547.84
2022-08-24T18:34:40.851Z,100556.59
2022-08-24T18:37:09.315Z,100552.47
2022-08-24T18:39:37.474Z,100549.09
2022-08-24T18:42:09.901Z,100562.84
2022-08-24T18:44:40.196Z,100560.19
2022-08-24T18:47:08.614Z,100559.13
2022-08-24T18:49:36.670Z,100555.91
2022-08-24T18:52:09.482Z,100557.69
2022-08-24T18:54:41.369Z,100562.81
2022-08-24T18:57:10.888Z,100555.06
2022-08-24T18:59:40.637Z,100560.09
2022-08-24T19:02:29.853Z,100563.81
2022-08-24T19:04:59.405Z,100566.78
2022-08-24T19:07:27.763Z,100565.59
2022-08-24T19:09:56.128Z,100567.19
2022-08-24T19:12:26.953Z,100563.34
2022-08-24T19:14:58.536Z,100562.94
2022-08-24T19:17:27.492Z,100566.13
2022-08-24T19:19:55.457Z,100565.28
2022-08-24T19:22:23.817Z,100569.19
2022-08-24T19:24:52.439Z,100563.31
2022-08-24T19:27:20.485Z,100563.72
2022-08-24T19:29:57.716Z,100569.28
2022-08-24T19:32:28.876Z,100564.84
2022-08-24T19:34:58.538Z,100563.72
2022-08-24T19:37:27.017Z,100556.13
2022-08-24T19:39:55.207Z,100563.00
2022-08-24T19:42:25.417Z,100558.50
2022-08-24T19:45:13.004Z,100557.50
2022-08-24T19:47:41.049Z,100561.53
2022-08-24T19:50:10.053Z,100564.13
2022-08-24T19:52:39.821Z,100566.56
2022-08-24T19:55:09.964Z,100566.25
2022-08-24T19:57:43.922Z,100564.16
2022-08-24T20:00:29.628Z,100555.50
2022-08-24T20:02:58.444Z,100564.31
2022-08-24T20:05:28.841Z,100568.47
2022-08-24T20:07:57.595Z,100564.31
2022-08-24T20:10:26.019Z,100559.94
2022-08-24T20:12:54.354Z,100574.41
2022-08-24T20:15:24.940Z,100556.13
2022-08-24T20:17:56.422Z,100563.38
2022-08-24T20:20:27.151Z,100567.59
2022-08-24T20:22:55.711Z,100573.19
2022-08-24T20:25:23.872Z,100564.53
2022-08-24T20:28:12.181Z,100566.16
2022-08-24T20:30:41.497Z,100570.03
2022-08-24T20:33:15.218Z,100558.72
2022-08-24T20:35:43.843Z,100565.47
2022-08-24T20:38:15.805Z,100567.25
2022-08-24T20:40:44.021Z,100573.41
2022-08-24T20:43:12.667Z,100565.22
2022-08-24T20:45:42.574Z,100565.06
2022-08-24T20:48:12.993Z,100562.94
2022-08-24T20:50:43.096Z,100563.69
2022-08-24T20:53:12.053Z,100565.16
2022-08-24T20:55:41.541Z,100565.16
2022-08-24T20:58:10.733Z,100567.97
2022-08-24T21:00:40.895Z,100567.16
2022-08-24T21:03:10.512Z,100563.53
2022-08-24T21:05:39.717Z,100568.03
2022-08-24T21:08:08.290Z,100568.59
2022-08-24T21:10:36.361Z,100571.00
2022-08-24T21:13:05.192Z,100570.53
2022-08-24T21:15:34.497Z,100569.47
2022-08-24T21:18:03.296Z,100573.34
2022-08-24T21:20:33.458Z,100575.03
2022-08-24T21:23:01.581Z,100572.66
2022-08-24T21:25:29.748Z,100572.81
2022-08-24T21:28:01.377Z,100576.13
2022-08-24T21:30:29.893Z,100575.94
2022-08-24T21:33:16.404Z,100576.63
2022-08-24T21:35:46.464Z,100578.78
2022-08-24T21:38:15.199Z,100580.69
2022-08-24T21:40:43.633Z,100581.66
2022-08-24T21:43:17.767Z,100578.00
2022-08-24T21:45:46.170Z,100570.63
2022-08-24T21:48:14.536Z,100582.38
2022-08-24T21:50:42.725Z,100586.56
2022-08-24T21:53:12.469Z,100589.69
2022-08-24T21:55:43.898Z,100585.22
2022-08-24T21:58:13.053Z,100585.56
2022-08-24T22:00:41.200Z,100582.38
2022-08-24T22:03:10.051Z,100583.22
2022-08-24T22:05:38.209Z,100585.13
2022-08-24T22:08:06.368Z,100588.41
2022-08-24T22:10:35.844Z,100585.75
2022-08-24T22:13:04.854Z,100590.03
2022-08-24T22:15:33.776Z,100579.09
2022-08-24T22:18:02.257Z,100584.38
2022-08-24T22:20:30.319Z,100581.75
2022-08-24T22:22:59.107Z,100591.66
2022-08-24T22:25:27.223Z,100584.47
2022-08-24T22:27:56.596Z,100591.41
2022-08-24T22:30:24.871Z,100582.75
2022-08-24T22:32:53.021Z,100582.66
2022-08-24T22:35:21.144Z,100585.38
2022-08-24T22:37:49.099Z,100588.53
2022-08-24T22:40:17.440Z,100582.00
2022-08-24T22:42:47.246Z,100582.03
2022-08-24T22:45:16.639Z,100587.56
2022-08-24T22:47:44.786Z,100586.34
2022-08-24T22:50:12.869Z,100586.47
2022-08-24T22:52:40.901Z,100589.63
2022-08-24T22:55:10.420Z,100587.09
2022-08-24T22:57:38.452Z,100588.78
2022-08-24T23:00:09.448Z,100592.81
2022-08-24T23:02:40.805Z,100582.16
2022-08-24T23:05:10.390Z,100589.28
2022-08-24T23:07:38.461Z,100585.09
2022-08-24T23:10:07.473Z,100580.00
2022-08-24T23:12:35.466Z,100578.41
2022-08-24T23:15:03.951Z,100575.25
2022-08-24T23:17:32.085Z,100576.53
2022-08-24T23:20:00.646Z,100577.44
2022-08-24T23:22:31.565Z,100572.06
2022-08-24T23:25:00.371Z,100579.66
2022-08-24T23:27:37.086Z,100573.09
2022-08-24T23:30:08.901Z,100576.63
2022-08-24T23:32:37.121Z,100575.81
2022-08-24T23:35:07.479Z,100584.66
2022-08-24T23:37:35.603Z,100583.47
2022-08-24T23:40:04.305Z,100576.00
2022-08-24T23:42:32.386Z,100581.13
2022-08-24T23:45:00.421Z,100579.19
2022-08-24T23:47:29.041Z,100578.19
2022-08-24T23:49:57.385Z,100569.41
2022-08-24T23:52:28.510Z,100571.53
2022-08-24T23:55:07.025Z,100560.72
2022-08-24T23:57:47.427Z,100559.06
